Flight Number: EUR2034 Duration: 0:50
Departure: Vienna Schwechat (LOWW) at 07:00 Distance: 192 Nm
Arrival: Munich Int'l (EDDM) at 07:50 Equipment: B737

Weather Information
Wien / Schwechat-Flughafen, Austria (LOWW) 48-07N 016-34E 190M Sep 21, 2017 - 09:50 AM EDT / 2017.09.21 1350 UTC
Wind: from the NW (310 degrees) at 13 MPH (11 KT):0
Visibility: greater than 7 mile(s):0
Sky conditions: mostly cloudy Temperature: 59 F (15 C) Dew Point: 46 F (8 C) Relative Humidity: 62% Pressure (altimeter): 30.06 in. Hg (1018 hPa)
ob: LOWW 211350Z 31011KT 9999 FEW050 BKN070 15/08 Q1018 NOSIG cycle: 14
Sunrise: 04:43 Sunset: 16:49 (UTC)

Munchen, Germany (EDDM) 48-21N 011-47E Sep 21, 2017 - 09:50 AM EDT / 2017.09.21 1350 UTC
Wind: from the SE (130 degrees) at 5 MPH (4 KT) (direction variable):0
Visibility: greater than 7 mile(s):0
Sky conditions: partly cloudy Temperature: 60 F (16 C) Dew Point: 44 F (7 C) Relative Humidity: 55% Pressure (altimeter): 30.15 in. Hg (1021 hPa)
ob: EDDM 211350Z 13004KT 080V190 9999 FEW040 SCT060 16/07 Q1021 NOSIG cycle: 14
Sunrise: 05:02 Sunset: 17:08 (UTC)

TAF:2017/09/21 12:27 TAF EDDM 211100Z 2112/2218 VRB03KT 9999 SCT020 BECMG 2123/2201 2000 BCFG TEMPO 2202/2208 0400 FG VV001 BECMG 2208/2210 9999

Previous Pireps for this route
Date Aircraft Flight time Fuel used Landing rate On time
2013-04-01B737150000No
2013-07-06B73700.575700-422No
2013-07-06B73701.008599-817No
2013-07-21B7370.5000No
2013-08-15B73701.016744-288No
2013-10-20B7371.0092540No
2014-03-31B73701.199380-574No
2014-04-03B73700.588004-338Charter
2014-06-28B73700.52-12-337No
2014-06-28B7370.5913800No
2015-01-13B73701.075609-153Yes
2015-03-12B73700.494943-86Yes
2015-03-28B73700.494149-273Yes
2015-04-04B73700.484345-256Yes
2015-04-05B73701.088560-479Yes
2015-04-06B73700.503379-138Yes
2015-06-23B7370.4649900Yes
2015-07-12B7370.5557050Yes
(pireps marked green are flown by you)

Route map